Terminal Aerodrome Forecast
Issued by NWS Binghamton, NY

Home | Current Version | Previous Version | Text Only | Print | Product List | Glossary On
Versions: 1 2 3 4 5 6 7 8 9 10 11 12 13 14 15 16 17 18 19 20 21 22 23 24 25 26
000
FTUS41 KBGM 212300 CCA
TAFBGM
TAF COR
KBGM 212347Z 2200/2224 20007KT P6SM SCT020 BKN035
      TEMPO 2200/2201 1SM TSRA OVC035CB
     FM220700 VRB03KT 5SM BR BKN015
      TEMPO 2209/2213 1SM BR OVC007
     FM221500 14003KT P6SM BKN025
     FM221700 13005KT P6SM -SHRA SCT025 BKN040=

USA.gov is the U.S. government's official web portal to all federal, state and local government web resources and services.